Time;durP1;ratioP1;P1;durP2;ratioP2;P2;SDS_P1;SDS_P2;PMS_P1;PMS_P2;Temp;Humidity;BMP_temperature;BMP_pressure;BME280_temperature;BME280_humidity;BME280_pressure;Samples;Min_cycle;Max_cycle;Signal;HPM_P1;HPM_P2
2022/09/01 00:01:56;;;;;;;0.30;0.30;;;;;;;;;;5132138;28;20030;-86
2022/09/01 00:04:26;;;;;;;0.00;0.00;;;;;;;;;;5110582;28;20034;-83
2022/09/01 00:06:53;;;;;;;0.38;0.38;;;;;;;;;;5107976;28;20023;-84
2022/09/01 00:09:20;;;;;;;0.00;0.00;;;;;;;;;;5110239;27;20479;-85
2022/09/01 00:11:51;;;;;;;0.40;0.40;;;;;;;;;;5112343;28;20521;-86
2022/09/01 00:14:18;;;;;;;0.00;0.00;;;;;;;;;;5128206;28;20054;-86
2022/09/01 00:16:44;;;;;;;0.00;0.00;;;;;;;;;;5131385;28;20042;-86
2022/09/01 00:19:09;;;;;;;0.03;0.03;;;;;;;;;;5131791;27;20027;-85
2022/09/01 00:21:40;;;;;;;0.17;0.15;;;;;;;;;;5135816;27;20050;-84
2022/09/01 00:24:06;;;;;;;0.52;0.52;;;;;;;;;;5116705;27;20030;-85
2022/09/01 00:26:31;;;;;;;0.05;0.05;;;;;;;;;;5136166;27;20030;-83
2022/09/01 00:28:57;;;;;;;0.00;0.00;;;;;;;;;;5114771;27;20353;-84
2022/09/01 00:31:23;;;;;;;0.20;0.20;;;;;;;;;;5134750;27;20064;-84
2022/09/01 00:33:49;;;;;;;1.17;0.98;;;;;;;;;;5133343;27;20405;-87
2022/09/01 00:36:15;;;;;;;0.10;0.10;;;;;;;;;;5134837;27;20026;-86
2022/09/01 00:38:41;;;;;;;2.10;0.40;;;;;;;;;;5132947;27;20106;-85
2022/09/01 00:41:07;;;;;;;0.10;0.10;;;;;;;;;;5113769;27;20119;-86
2022/09/01 00:43:43;;;;;;;0.10;0.10;;;;;;;;;;5116934;27;20056;-86
2022/09/01 00:46:19;;;;;;;0.00;0.00;;;;;;;;;;5132484;27;20368;-86
2022/09/01 00:48:47;;;;;;;0.50;0.50;;;;;;;;;;5117007;27;20027;-85
2022/09/01 00:51:14;;;;;;;0.20;0.20;;;;;;;;;;5117243;27;20023;-86
2022/09/01 00:53:42;;;;;;;0.60;0.60;;;;;;;;;;5133828;27;20024;-84
2022/09/01 00:56:09;;;;;;;0.28;0.28;;;;;;;;;;5114221;27;20572;-85
2022/09/01 00:58:36;;;;;;;1.20;1.15;;;;;;;;;;5134269;27;20370;-85
2022/09/01 01:01:04;;;;;;;0.00;0.00;;;;;;;;;;5134631;27;20034;-84
2022/09/01 01:03:30;;;;;;;0.20;0.20;;;;;;;;;;5116824;27;20382;-85
2022/09/01 01:05:57;;;;;;;0.10;0.10;;;;;;;;;;5117048;27;20023;-85
2022/09/01 01:08:32;;;;;;;0.90;0.70;;;;;;;;;;5134746;27;20374;-85
2022/09/01 01:11:02;;;;;;;0.15;0.15;;;;;;;;;;5113224;27;20023;-85
2022/09/01 01:13:35;;;;;;;0.00;0.00;;;;;;;;;;5116709;27;20123;-87
2022/09/01 01:16:02;;;;;;;1.58;1.48;;;;;;;;;;5112960;27;20031;-85
2022/09/01 01:18:28;;;;;;;0.20;0.20;;;;;;;;;;5134680;27;20023;-85
2022/09/01 01:24:18;;;;;;;0.20;0.20;;;;;;;;;;5134240;27;20038;-86
2022/09/01 01:26:44;;;;;;;1.17;0.52;;;;;;;;;;5112688;27;20035;-85
2022/09/01 01:29:10;;;;;;;1.45;1.35;;;;;;;;;;5115813;27;20026;-87
2022/09/01 01:31:36;;;;;;;0.00;0.00;;;;;;;;;;5133775;27;20031;-85
2022/09/01 01:34:05;;;;;;;0.17;0.03;;;;;;;;;;5128906;27;20066;-85
2022/09/01 01:36:35;;;;;;;1.25;0.55;;;;;;;;;;5134515;27;20411;-86
2022/09/01 01:39:11;;;;;;;0.43;0.30;;;;;;;;;;5134480;27;20023;-86
2022/09/01 01:41:44;;;;;;;0.10;0.10;;;;;;;;;;5116178;27;20270;-85
2022/09/01 01:44:12;;;;;;;0.40;0.30;;;;;;;;;;5134210;27;20027;-85
2022/09/01 01:46:41;;;;;;;0.20;0.20;;;;;;;;;;5115903;27;20034;-85
2022/09/01 01:49:09;;;;;;;0.60;0.60;;;;;;;;;;5132570;27;20035;-86
2022/09/01 01:51:35;;;;;;;0.05;0.00;;;;;;;;;;5110798;27;20230;-85
2022/09/01 01:54:04;;;;;;;0.00;0.00;;;;;;;;;;5111934;27;20058;-85
2022/09/01 01:56:31;;;;;;;1.27;1.17;;;;;;;;;;5114811;27;20053;-86
2022/09/01 01:58:57;;;;;;;0.20;0.20;;;;;;;;;;5115742;27;20019;-86
2022/09/01 02:01:27;;;;;;;0.00;0.00;;;;;;;;;;5133107;27;20076;-86
2022/09/01 02:03:54;;;;;;;1.15;1.15;;;;;;;;;;5130929;27;20030;-86
2022/09/01 02:06:23;;;;;;;0.30;0.30;;;;;;;;;;5134149;27;20034;-86
2022/09/01 02:08:55;;;;;;;0.28;0.28;;;;;;;;;;5130886;27;20486;-85
2022/09/01 02:11:21;;;;;;;0.00;0.00;;;;;;;;;;5115264;27;20434;-86
2022/09/01 02:13:48;;;;;;;0.00;0.00;;;;;;;;;;5130057;27;20084;-85
2022/09/01 02:16:15;;;;;;;0.00;0.00;;;;;;;;;;5112680;27;20055;-86
2022/09/01 02:18:48;;;;;;;0.10;0.10;;;;;;;;;;5111285;27;20486;-85
2022/09/01 02:21:19;;;;;;;0.00;0.00;;;;;;;;;;5131711;27;20098;-84
2022/09/01 02:23:47;;;;;;;0.10;0.10;;;;;;;;;;5111578;27;20077;-87
2022/09/01 02:26:15;;;;;;;0.00;0.00;;;;;;;;;;5133773;27;20443;-86
2022/09/01 02:28:42;;;;;;;0.20;0.20;;;;;;;;;;5131746;27;20041;-84
2022/09/01 02:31:10;;;;;;;0.00;0.00;;;;;;;;;;5133639;27;20502;-86
2022/09/01 02:33:37;;;;;;;0.05;0.05;;;;;;;;;;5132020;27;20027;-85
2022/09/01 02:36:07;;;;;;;0.30;0.30;;;;;;;;;;5129425;27;20027;-83
2022/09/01 02:38:33;;;;;;;0.45;0.45;;;;;;;;;;5126608;27;20099;-86
2022/09/01 02:41:01;;;;;;;0.30;0.30;;;;;;;;;;5113535;27;20072;-83
2022/09/01 02:43:30;;;;;;;0.00;0.00;;;;;;;;;;5130691;27;20490;-84
2022/09/01 02:45:58;;;;;;;0.00;0.00;;;;;;;;;;5109622;27;21531;-85
2022/09/01 02:48:50;;;;;;;0.40;0.40;;;;;;;;;;5132634;27;20023;-87
2022/09/01 02:51:17;;;;;;;0.00;0.00;;;;;;;;;;5133652;27;20023;-86
2022/09/01 02:53:48;;;;;;;1.00;0.65;;;;;;;;;;5128590;27;20077;-86
2022/09/01 02:56:15;;;;;;;1.00;0.30;;;;;;;;;;5131010;27;20067;-87
2022/09/01 02:58:46;;;;;;;0.00;0.00;;;;;;;;;;5132381;27;20015;-85
2022/09/01 03:01:28;;;;;;;0.15;0.10;;;;;;;;;;5113597;28;20071;-87
2022/09/01 03:03:58;;;;;;;0.10;0.10;;;;;;;;;;5112981;28;20470;-86
2022/09/01 03:06:25;;;;;;;0.82;0.82;;;;;;;;;;5132045;27;20391;-86
2022/09/01 03:08:53;;;;;;;0.35;0.35;;;;;;;;;;5112964;27;21545;-86
2022/09/01 03:11:19;;;;;;;0.15;0.15;;;;;;;;;;5113135;27;20035;-84
2022/09/01 03:13:45;;;;;;;0.28;0.28;;;;;;;;;;5132340;27;20027;-86
2022/09/01 03:16:14;;;;;;;0.00;0.00;;;;;;;;;;5132443;27;20034;-85
2022/09/01 03:18:41;;;;;;;2.72;2.40;;;;;;;;;;5112798;28;20471;-85
2022/09/01 03:21:08;;;;;;;0.10;0.10;;;;;;;;;;5132748;28;20031;-85
2022/09/01 03:23:34;;;;;;;1.45;1.35;;;;;;;;;;5114356;28;20025;-85
2022/09/01 03:26:00;;;;;;;0.43;0.25;;;;;;;;;;5113911;28;20023;-85
2022/09/01 03:28:26;;;;;;;0.00;0.00;;;;;;;;;;5131839;28;20071;-86
2022/09/01 03:30:54;;;;;;;0.55;0.55;;;;;;;;;;5130313;28;20027;-85
2022/09/01 03:33:21;;;;;;;0.10;0.10;;;;;;;;;;5112849;28;20030;-86
2022/09/01 03:35:48;;;;;;;1.85;1.75;;;;;;;;;;5132456;28;20041;-85
2022/09/01 03:38:20;;;;;;;0.10;0.10;;;;;;;;;;5132372;28;20035;-86
2022/09/01 03:40:48;;;;;;;0.10;0.10;;;;;;;;;;5131550;28;20019;-85
2022/09/01 03:43:15;;;;;;;0.00;0.00;;;;;;;;;;5114034;28;20052;-86
2022/09/01 03:45:41;;;;;;;0.10;0.10;;;;;;;;;;5112873;27;20035;-85
2022/09/01 03:48:08;;;;;;;0.70;0.70;;;;;;;;;;5130840;28;20068;-84
2022/09/01 03:50:44;;;;;;;1.23;1.15;;;;;;;;;;5132093;28;20042;-85
2022/09/01 03:53:13;;;;;;;0.88;0.88;;;;;;;;;;5113822;27;20110;-85
2022/09/01 03:55:39;;;;;;;0.13;0.13;;;;;;;;;;5114158;27;20046;-85
2022/09/01 03:58:08;;;;;;;0.70;0.70;;;;;;;;;;5136566;27;20463;-86
2022/09/01 04:00:38;;;;;;;0.07;0.07;;;;;;;;;;5113021;27;20030;-85
2022/09/01 04:03:06;;;;;;;0.03;0.03;;;;;;;;;;5116680;27;20023;-86
2022/09/01 04:05:36;;;;;;;1.08;1.02;;;;;;;;;;5117081;27;20055;-86
2022/09/01 04:08:02;;;;;;;;;;;;;;;;;;5117156;27;20035;-85
2022/09/01 04:10:33;;;;;;;0.60;0.55;;;;;;;;;;5134428;27;20387;-85
2022/09/01 04:13:00;;;;;;;0.32;0.20;;;;;;;;;;5117628;27;20027;-86
2022/09/01 04:15:26;;;;;;;0.03;0.03;;;;;;;;;;5117482;27;20470;-85
2022/09/01 04:18:08;;;;;;;0.30;0.28;;;;;;;;;;5112712;27;20471;-84
2022/09/01 04:20:49;;;;;;;0.20;0.20;;;;;;;;;;5114080;27;20061;-85
2022/09/01 04:23:32;;;;;;;1.45;1.35;;;;;;;;;;5136045;27;20023;-84
2022/09/01 04:26:13;;;;;;;0.30;0.30;;;;;;;;;;5134247;27;20083;-85
2022/09/01 04:28:49;;;;;;;0.00;0.00;;;;;;;;;;5127732;27;20019;-87
2022/09/01 04:31:18;;;;;;;1.75;0.10;;;;;;;;;;5134021;27;20034;-84
2022/09/01 04:33:46;;;;;;;0.88;0.45;;;;;;;;;;5135345;27;20418;-86
2022/09/01 04:36:22;;;;;;;0.03;0.03;;;;;;;;;;5128280;27;20023;-85
2022/09/01 04:38:54;;;;;;;6.97;2.20;;;;;;;;;;5113275;27;20031;-83
2022/09/01 04:41:24;;;;;;;0.40;0.40;;;;;;;;;;5115352;27;20023;-83
2022/09/01 04:43:51;;;;;;;0.25;0.25;;;;;;;;;;5132722;27;20037;-83
2022/09/01 04:46:19;;;;;;;0.00;0.00;;;;;;;;;;5133356;27;20098;-84
2022/09/01 04:48:46;;;;;;;2.22;1.33;;;;;;;;;;5116186;27;20095;-83
2022/09/01 04:51:14;;;;;;;0.17;0.17;;;;;;;;;;5116313;27;20049;-81
2022/09/01 04:53:41;;;;;;;0.05;0.03;;;;;;;;;;5115415;27;20023;-83
2022/09/01 04:56:11;;;;;;;2.72;0.45;;;;;;;;;;5134296;27;20058;-82
2022/09/01 04:58:37;;;;;;;0.35;0.35;;;;;;;;;;5134555;27;20446;-83
2022/09/01 05:01:21;;;;;;;0.30;0.30;;;;;;;;;;5134671;27;20031;-83
2022/09/01 05:03:55;;;;;;;0.30;0.30;;;;;;;;;;5133002;27;20051;-82
2022/09/01 05:06:21;;;;;;;6.00;1.92;;;;;;;;;;5133176;27;20026;-81
2022/09/01 05:08:47;;;;;;;2.00;1.88;;;;;;;;;;5134238;27;20092;-82
2022/09/01 05:11:16;;;;;;;0.80;0.80;;;;;;;;;;5135532;27;20031;-83
2022/09/01 05:13:47;;;;;;;0.00;0.00;;;;;;;;;;5134491;27;20123;-82
2022/09/01 05:16:15;;;;;;;0.28;0.28;;;;;;;;;;5114694;27;20331;-82
2022/09/01 05:18:46;;;;;;;0.10;0.10;;;;;;;;;;5133974;27;20546;-83
2022/09/01 05:21:15;;;;;;;0.28;0.28;;;;;;;;;;5115539;27;20019;-83
2022/09/01 05:23:41;;;;;;;0.10;0.10;;;;;;;;;;5115705;27;20023;-82
2022/09/01 05:26:16;;;;;;;1.30;1.05;;;;;;;;;;5131117;27;20015;-83
2022/09/01 05:28:52;;;;;;;0.00;0.00;;;;;;;;;;5134006;27;20023;-83
2022/09/01 05:31:18;;;;;;;0.50;0.40;;;;;;;;;;5131263;27;20023;-82
2022/09/01 05:33:47;;;;;;;0.50;0.50;;;;;;;;;;5133973;27;20054;-82
2022/09/01 05:36:15;;;;;;;21.90;5.20;;;;;;;;;;5129373;27;20107;-81
2022/09/01 05:38:43;;;;;;;2.42;1.40;;;;;;;;;;5131985;27;20140;-82
2022/09/01 05:41:13;;;;;;;0.55;0.55;;;;;;;;;;5130666;27;20034;-83
2022/09/01 05:43:48;;;;;;;0.25;0.25;;;;;;;;;;5113498;27;20029;-83
2022/09/01 05:46:25;;;;;;;0.57;0.50;;;;;;;;;;5108467;27;20027;-84
2022/09/01 05:48:52;;;;;;;0.20;0.20;;;;;;;;;;5111821;27;20023;-83
2022/09/01 05:51:21;;;;;;;1.00;0.70;;;;;;;;;;5130201;27;20516;-84
2022/09/01 05:53:51;;;;;;;0.20;0.20;;;;;;;;;;5129708;27;20375;-82
2022/09/01 05:56:18;;;;;;;0.57;0.57;;;;;;;;;;5114273;27;20046;-82
2022/09/01 05:58:47;;;;;;;1.83;1.75;;;;;;;;;;5131499;27;20069;-83
2022/09/01 06:01:23;;;;;;;0.17;0.17;;;;;;;;;;5115094;27;20022;-84
2022/09/01 06:03:55;;;;;;;0.10;0.10;;;;;;;;;;5129089;27;20382;-84
2022/09/01 06:06:27;;;;;;;0.38;0.38;;;;;;;;;;5132088;27;20027;-86
2022/09/01 06:08:58;;;;;;;0.65;0.65;;;;;;;;;;5109898;27;20097;-85
2022/09/01 06:11:25;;;;;;;0.05;0.05;;;;;;;;;;5132722;27;20027;-84
2022/09/01 06:13:54;;;;;;;6.32;1.95;;;;;;;;;;5130714;27;20058;-84
2022/09/01 06:16:21;;;;;;;0.82;0.82;;;;;;;;;;5133952;27;20102;-86
2022/09/01 06:18:46;;;;;;;0.25;0.25;;;;;;;;;;5115580;27;20027;-86
2022/09/01 06:21:13;;;;;;;0.25;0.25;;;;;;;;;;5133968;27;20052;-86
2022/09/01 06:23:43;;;;;;;0.25;0.25;;;;;;;;;;5117237;27;20022;-86
2022/09/01 06:26:22;;;;;;;0.30;0.28;;;;;;;;;;5117414;27;20027;-86
2022/09/01 06:28:53;;;;;;;0.17;0.17;;;;;;;;;;5134130;27;20019;-86
2022/09/01 06:31:22;;;;;;;0.17;0.17;;;;;;;;;;5134058;27;20058;-85
2022/09/01 06:33:50;;;;;;;0.30;0.17;;;;;;;;;;5117597;27;20098;-85
2022/09/01 06:36:18;;;;;;;0.10;0.10;;;;;;;;;;5136122;27;20027;-85
2022/09/01 06:38:43;;;;;;;0.43;0.43;;;;;;;;;;5135186;27;20031;-87
2022/09/01 06:41:11;;;;;;;0.65;0.65;;;;;;;;;;5136243;27;20023;-86
2022/09/01 06:43:40;;;;;;;0.60;0.60;;;;;;;;;;5132251;27;20018;-85
2022/09/01 06:46:08;;;;;;;11.10;1.05;;;;;;;;;;5116020;27;20027;-86
2022/09/01 06:48:35;;;;;;;0.35;0.35;;;;;;;;;;5115559;27;20069;-86
2022/09/01 06:51:02;;;;;;;0.05;0.05;;;;;;;;;;5117078;27;20031;-86
2022/09/01 06:53:29;;;;;;;0.32;0.32;;;;;;;;;;5117622;27;20022;-86
2022/09/01 06:55:55;;;;;;;0.22;0.22;;;;;;;;;;5135843;27;20039;-87
2022/09/01 06:58:20;;;;;;;0.80;0.73;;;;;;;;;;5135129;27;20027;-86
2022/09/01 07:00:48;;;;;;;0.70;0.63;;;;;;;;;;5134824;27;20023;-86
2022/09/01 07:03:14;;;;;;;3.30;3.10;;;;;;;;;;5134687;27;20498;-87
2022/09/01 07:05:48;;;;;;;0.60;0.60;;;;;;;;;;5134817;27;20022;-86
2022/09/01 07:08:18;;;;;;;0.45;0.43;;;;;;;;;;5111003;27;20459;-85
2022/09/01 07:10:49;;;;;;;5.05;2.70;;;;;;;;;;5111073;27;20080;-86
2022/09/01 07:13:21;;;;;;;0.63;0.63;;;;;;;;;;5134985;27;20207;-86
2022/09/01 07:15:48;;;;;;;0.10;0.10;;;;;;;;;;5132425;27;20023;-85
2022/09/01 07:18:23;;;;;;;0.28;0.28;;;;;;;;;;5115930;27;20110;-84
2022/09/01 07:20:51;;;;;;;0.50;0.50;;;;;;;;;;5132450;27;20524;-86
2022/09/01 07:23:18;;;;;;;0.68;0.68;;;;;;;;;;5133581;28;20035;-85
2022/09/01 07:25:46;;;;;;;0.20;0.20;;;;;;;;;;5134525;28;20027;-85
2022/09/01 07:28:13;;;;;;;1.38;0.70;;;;;;;;;;5134339;27;20120;-86
2022/09/01 07:30:47;;;;;;;0.82;0.82;;;;;;;;;;5119386;27;20066;-85
2022/09/01 07:33:14;;;;;;;0.65;0.65;;;;;;;;;;5138777;27;20420;-87
2022/09/01 07:35:41;;;;;;;1.15;1.00;;;;;;;;;;5138797;27;20031;-85
2022/09/01 07:38:08;;;;;;;0.73;0.73;;;;;;;;;;5136412;27;20500;-85
2022/09/01 07:40:37;;;;;;;0.60;0.60;;;;;;;;;;5138308;27;20031;-87
2022/09/01 07:43:07;;;;;;;0.20;0.20;;;;;;;;;;5133714;27;20465;-84
2022/09/01 07:45:34;;;;;;;0.43;0.43;;;;;;;;;;5118302;27;20050;-84
2022/09/01 07:48:05;;;;;;;0.52;0.28;;;;;;;;;;5115518;27;20020;-85
2022/09/01 07:50:35;;;;;;;1.52;1.35;;;;;;;;;;5136584;27;20786;-84
2022/09/01 07:53:02;;;;;;;2.40;0.65;;;;;;;;;;5137496;27;20027;-85
2022/09/01 07:55:27;;;;;;;0.93;0.93;;;;;;;;;;5135509;27;20080;-84
2022/09/01 07:57:53;;;;;;;5.18;3.28;;;;;;;;;;5136844;27;20027;-84
2022/09/01 08:00:20;;;;;;;0.90;0.82;;;;;;;;;;5118331;27;20027;-83
2022/09/01 08:02:46;;;;;;;0.20;0.20;;;;;;;;;;5137036;27;20039;-83
2022/09/01 08:05:16;;;;;;;2.42;2.20;;;;;;;;;;5137026;27;20027;-84
2022/09/01 08:07:43;;;;;;;0.70;0.40;;;;;;;;;;5117097;27;20019;-84
2022/09/01 08:10:08;;;;;;;0.70;0.70;;;;;;;;;;5137197;27;20114;-85
2022/09/01 08:12:34;;;;;;;0.30;0.30;;;;;;;;;;5137692;27;20494;-86
2022/09/01 08:15:08;;;;;;;6.70;3.00;;;;;;;;;;5118167;27;20110;-85
2022/09/01 08:17:36;;;;;;;1.08;1.08;;;;;;;;;;5117641;27;20049;-85
2022/09/01 08:20:01;;;;;;;1.00;1.00;;;;;;;;;;5137339;27;20035;-86
2022/09/01 08:22:27;;;;;;;1.85;1.20;;;;;;;;;;5118583;27;20386;-84
2022/09/01 08:24:53;;;;;;;0.88;0.88;;;;;;;;;;5136755;27;20027;-84
2022/09/01 08:27:18;;;;;;;1.00;1.00;;;;;;;;;;5136598;27;20027;-84
2022/09/01 08:29:44;;;;;;;3.20;0.95;;;;;;;;;;5136767;27;20102;-84
2022/09/01 08:32:10;;;;;;;0.70;0.70;;;;;;;;;;5118333;27;20038;-87
2022/09/01 08:34:36;;;;;;;0.55;0.55;;;;;;;;;;5136919;27;20060;-85
2022/09/01 08:37:03;;;;;;;1.35;1.27;;;;;;;;;;5135100;27;20030;-84
2022/09/01 08:39:29;;;;;;;0.75;0.75;;;;;;;;;;5135695;27;20043;-83
2022/09/01 08:42:13;;;;;;;0.45;0.45;;;;;;;;;;5132427;27;20057;-87
2022/09/01 08:45:16;;;;;;;0.88;0.55;;;;;;;;;;5115173;27;20030;-85
2022/09/01 08:47:42;;;;;;;0.10;0.10;;;;;;;;;;5133664;27;20023;-84
2022/09/01 08:50:08;;;;;;;1.23;0.75;;;;;;;;;;5133881;27;20489;-85
2022/09/01 08:52:45;;;;;;;2.17;1.20;;;;;;;;;;5134106;27;20023;-83
2022/09/01 08:55:26;;;;;;;0.30;0.30;;;;;;;;;;5116909;27;20043;-84
2022/09/01 08:57:54;;;;;;;1.08;0.93;;;;;;;;;;5115532;27;20547;-84
2022/09/01 09:00:29;;;;;;;0.45;0.45;;;;;;;;;;5118091;27;20023;-85
2022/09/01 09:03:05;;;;;;;0.95;0.95;;;;;;;;;;5134707;27;20031;-86
2022/09/01 09:05:49;;;;;;;0.00;0.00;;;;;;;;;;5132852;27;20028;-84
2022/09/01 09:08:33;;;;;;;0.57;0.57;;;;;;;;;;5114865;27;20024;-84
2022/09/01 09:11:02;;;;;;;0.47;0.47;;;;;;;;;;5132689;27;20072;-86
2022/09/01 09:13:31;;;;;;;0.28;0.28;;;;;;;;;;5135845;27;20561;-84
2022/09/01 09:16:02;;;;;;;0.35;0.35;;;;;;;;;;5113639;27;20083;-84
2022/09/01 09:18:32;;;;;;;0.70;0.65;;;;;;;;;;5134108;27;20023;-82
2022/09/01 09:21:07;;;;;;;0.65;0.65;;;;;;;;;;5130882;27;20034;-85
2022/09/01 09:23:37;;;;;;;0.82;0.82;;;;;;;;;;5134956;27;20535;-84
2022/09/01 09:26:03;;;;;;;1.00;0.77;;;;;;;;;;5116444;27;20051;-82
2022/09/01 09:28:28;;;;;;;0.57;0.30;;;;;;;;;;5118376;27;20079;-82
2022/09/01 09:31:28;;;;;;;0.15;0.15;;;;;;;;;;5114856;27;20649;-82
2022/09/01 09:33:54;;;;;;;0.47;0.47;;;;;;;;;;5134071;27;20023;-82
2022/09/01 09:36:28;;;;;;;0.38;0.35;;;;;;;;;;5134896;27;20038;-83
2022/09/01 09:39:13;;;;;;;1.23;1.13;;;;;;;;;;5132433;27;20023;-82
2022/09/01 09:41:40;;;;;;;0.73;0.30;;;;;;;;;;5134316;27;20155;-83
2022/09/01 09:44:05;;;;;;;0.43;0.38;;;;;;;;;;5117324;27;20019;-83
2022/09/01 09:46:31;;;;;;;1.17;1.13;;;;;;;;;;5130455;27;20027;-83
2022/09/01 09:49:11;;;;;;;0.70;0.70;;;;;;;;;;5134446;27;20015;-82
2022/09/01 09:51:39;;;;;;;0.52;0.52;;;;;;;;;;5115189;28;20155;-82
2022/09/01 09:54:15;;;;;;;1.88;1.67;;;;;;;;;;5115689;27;20052;-83
2022/09/01 09:56:43;;;;;;;0.82;0.73;;;;;;;;;;5112272;27;20038;-84
2022/09/01 09:59:25;;;;;;;0.25;0.20;;;;;;;;;;5116092;27;20046;-83
2022/09/01 10:01:56;;;;;;;1.15;1.05;;;;;;;;;;5115984;27;20061;-84
2022/09/01 10:04:35;;;;;;;0.80;0.80;;;;;;;;;;5135148;27;20027;-82
2022/09/01 10:07:01;;;;;;;0.80;0.60;;;;;;;;;;5133845;27;20492;-82
2022/09/01 10:09:26;;;;;;;0.68;0.60;;;;;;;;;;5114371;27;20055;-83
2022/09/01 10:11:54;;;;;;;0.65;0.55;;;;;;;;;;5133599;27;20049;-83
2022/09/01 10:15:04;;;;;;;0.20;0.20;;;;;;;;;;5128926;27;20108;-83
2022/09/01 10:17:37;;;;;;;0.77;0.77;;;;;;;;;;5064557;27;20043;-82
2022/09/01 10:20:11;;;;;;;1.08;0.98;;;;;;;;;;5129276;27;20031;-83
2022/09/01 10:22:39;;;;;;;1.95;0.47;;;;;;;;;;5125156;27;20023;-83
2022/09/01 10:25:06;;;;;;;0.25;0.25;;;;;;;;;;5113941;27;20046;-83
2022/09/01 10:27:39;;;;;;;0.50;0.50;;;;;;;;;;5134002;27;20072;-83
2022/09/01 10:30:06;;;;;;;0.75;0.45;;;;;;;;;;5107904;27;20031;-82
2022/09/01 10:32:59;;;;;;;1.55;0.40;;;;;;;;;;5113865;27;20637;-83
2022/09/01 10:35:31;;;;;;;0.73;0.55;;;;;;;;;;5129200;27;20043;-82
2022/09/01 10:37:58;;;;;;;1.02;1.02;;;;;;;;;;5128644;27;20099;-83
2022/09/01 10:40:32;;;;;;;0.17;0.17;;;;;;;;;;5110710;27;20034;-82
2022/09/01 10:43:20;;;;;;;0.30;0.30;;;;;;;;;;5113453;27;20035;-83
2022/09/01 10:45:46;;;;;;;0.00;0.00;;;;;;;;;;5131309;27;20340;-82
2022/09/01 10:48:22;;;;;;;0.17;0.17;;;;;;;;;;5128929;27;20023;-82
2022/09/01 10:50:54;;;;;;;0.55;0.55;;;;;;;;;;5124735;27;20035;-82
2022/09/01 10:53:31;;;;;;;1.02;1.02;;;;;;;;;;5127911;27;20046;-82
2022/09/01 10:56:23;;;;;;;0.77;0.75;;;;;;;;;;5127023;27;20047;-82
2022/09/01 10:58:58;;;;;;;1.25;1.20;;;;;;;;;;5129459;27;20030;-84
2022/09/01 11:01:42;;;;;;;0.10;0.10;;;;;;;;;;5131283;27;20042;-82
2022/09/01 11:04:10;;;;;;;0.93;0.90;;;;;;;;;;5133625;27;20521;-83
2022/09/01 11:06:41;;;;;;;1.48;1.38;;;;;;;;;;5133311;27;20030;-82
2022/09/01 11:09:19;;;;;;;0.95;0.95;;;;;;;;;;5129347;27;20398;-82
2022/09/01 11:11:53;;;;;;;0.52;0.52;;;;;;;;;;5129503;27;20071;-82
2022/09/01 11:14:22;;;;;;;0.30;0.28;;;;;;;;;;5130581;27;20026;-81
2022/09/01 11:17:18;;;;;;;1.05;1.05;;;;;;;;;;5129292;27;20103;-82
2022/09/01 11:19:53;;;;;;;0.75;0.38;;;;;;;;;;5128988;27;20422;-82
2022/09/01 11:22:24;;;;;;;0.68;0.65;;;;;;;;;;5127989;27;20019;-81
2022/09/01 11:25:23;;;;;;;0.63;0.55;;;;;;;;;;5128625;28;20019;-82
2022/09/01 11:27:49;;;;;;;1.48;1.00;;;;;;;;;;5124013;28;20027;-82
2022/09/01 11:30:29;;;;;;;0.30;0.30;;;;;;;;;;5130116;28;20034;-82
2022/09/01 11:33:22;;;;;;;0.65;0.65;;;;;;;;;;5108599;28;20099;-81
2022/09/01 11:35:59;;;;;;;0.25;0.25;;;;;;;;;;5128305;28;20126;-82
2022/09/01 11:38:27;;;;;;;1.23;1.20;;;;;;;;;;5131343;28;20512;-82
2022/09/01 11:40:57;;;;;;;0.43;0.20;;;;;;;;;;5111916;28;20023;-82
2022/09/01 11:43:24;;;;;;;0.82;0.82;;;;;;;;;;5129902;28;20035;-83
2022/09/01 11:46:05;;;;;;;0.30;0.30;;;;;;;;;;5130214;28;20027;-82
2022/09/01 11:48:31;;;;;;;0.82;0.63;;;;;;;;;;5131058;28;20011;-81
2022/09/01 11:50:59;;;;;;;0.32;0.10;;;;;;;;;;5131762;27;20028;-83
2022/09/01 11:53:26;;;;;;;0.47;0.47;;;;;;;;;;5112440;28;20087;-81
2022/09/01 11:55:55;;;;;;;0.40;0.40;;;;;;;;;;5131897;28;20043;-83
2022/09/01 11:58:27;;;;;;;;;;;;;;;;;;5113602;28;20031;-79
2022/09/01 12:00:54;;;;;;;2.13;1.55;;;;;;;;;;5129744;28;20355;-82
2022/09/01 12:03:28;;;;;;;28.35;1.80;;;;;;;;;;5131834;28;20117;-83
2022/09/01 12:06:03;;;;;;;0.40;0.38;;;;;;;;;;5130818;28;20075;-83
2022/09/01 12:08:36;;;;;;;0.55;0.52;;;;;;;;;;5131022;28;20035;-82
2022/09/01 12:11:03;;;;;;;0.03;0.03;;;;;;;;;;5129317;28;20027;-81
2022/09/01 12:13:29;;;;;;;0.52;0.52;;;;;;;;;;5112850;28;20390;-82
2022/09/01 12:16:00;;;;;;;4.45;2.38;;;;;;;;;;5130355;27;20039;-82
2022/09/01 12:18:28;;;;;;;0.20;0.20;;;;;;;;;;5133294;27;20031;-82
2022/09/01 12:20:56;;;;;;;0.75;0.63;;;;;;;;;;5115262;27;20030;-82
2022/09/01 12:23:25;;;;;;;1.48;1.40;;;;;;;;;;5133651;27;20025;-82
2022/09/01 12:25:57;;;;;;;0.80;0.80;;;;;;;;;;5130233;27;20503;-83
2022/09/01 12:28:25;;;;;;;0.28;0.28;;;;;;;;;;5128823;27;20934;-82
2022/09/01 12:30:52;;;;;;;1.05;1.02;;;;;;;;;;5131178;27;20141;-83
2022/09/01 12:33:18;;;;;;;0.65;0.65;;;;;;;;;;5134694;27;20023;-83
2022/09/01 12:35:44;;;;;;;0.00;0.00;;;;;;;;;;5114214;27;20023;-82
2022/09/01 12:38:18;;;;;;;0.55;0.55;;;;;;;;;;5130618;27;20019;-85
2022/09/01 12:40:46;;;;;;;0.68;0.68;;;;;;;;;;5133260;27;20512;-84
2022/09/01 12:43:27;;;;;;;0.65;0.65;;;;;;;;;;5113911;27;20387;-84
2022/09/01 12:45:52;;;;;;;0.40;0.30;;;;;;;;;;5131632;27;20027;-83
2022/09/01 12:48:29;;;;;;;0.43;0.43;;;;;;;;;;5131519;27;20516;-84
2022/09/01 12:50:58;;;;;;;0.68;0.68;;;;;;;;;;5132373;27;20490;-82
2022/09/01 12:53:27;;;;;;;1.23;1.17;;;;;;;;;;5117762;27;20100;-82
2022/09/01 12:55:58;;;;;;;0.35;0.35;;;;;;;;;;5136849;27;20043;-82
2022/09/01 12:58:26;;;;;;;0.93;0.80;;;;;;;;;;5128783;27;20092;-82
2022/09/01 13:01:08;;;;;;;1.20;1.10;;;;;;;;;;5135405;27;20110;-82
2022/09/01 13:03:34;;;;;;;0.77;0.77;;;;;;;;;;5113314;27;20027;-83
2022/09/01 13:06:02;;;;;;;0.65;0.65;;;;;;;;;;5134559;27;20083;-83
2022/09/01 13:08:31;;;;;;;0.75;0.75;;;;;;;;;;5135180;27;20027;-83
2022/09/01 13:11:06;;;;;;;0.35;0.35;;;;;;;;;;5134688;27;20406;-82
2022/09/01 13:13:35;;;;;;;0.10;0.10;;;;;;;;;;5133359;27;20378;-82
2022/09/01 13:16:09;;;;;;;0.30;0.28;;;;;;;;;;5132265;27;20057;-82
2022/09/01 13:18:34;;;;;;;1.02;1.00;;;;;;;;;;5135139;27;20136;-83
2022/09/01 13:21:00;;;;;;;0.93;0.85;;;;;;;;;;5136787;27;20058;-82
2022/09/01 13:23:26;;;;;;;1.02;0.70;;;;;;;;;;5136414;27;20027;-82
2022/09/01 13:25:52;;;;;;;0.65;0.65;;;;;;;;;;5135792;27;20023;-83
2022/09/01 13:28:23;;;;;;;0.30;0.20;;;;;;;;;;5116643;27;20042;-83
2022/09/01 13:30:55;;;;;;;1.63;1.52;;;;;;;;;;5134449;27;20439;-82
2022/09/01 13:33:21;;;;;;;0.40;0.40;;;;;;;;;;5136777;27;20463;-82
2022/09/01 13:35:48;;;;;;;4.95;1.75;;;;;;;;;;5137432;27;20040;-83
2022/09/01 13:38:15;;;;;;;0.60;0.60;;;;;;;;;;5133307;27;20536;-84
2022/09/01 13:40:42;;;;;;;0.43;0.43;;;;;;;;;;5128002;27;20031;-82
2022/09/01 13:43:07;;;;;;;0.50;0.50;;;;;;;;;;5135178;27;20031;-84
2022/09/01 13:45:33;;;;;;;0.30;0.30;;;;;;;;;;5136817;27;20042;-84
2022/09/01 13:47:59;;;;;;;0.65;0.65;;;;;;;;;;5136810;27;20027;-82
2022/09/01 13:50:24;;;;;;;0.70;0.70;;;;;;;;;;5138476;27;20026;-82
2022/09/01 13:52:53;;;;;;;0.20;0.20;;;;;;;;;;5136912;27;20034;-82
2022/09/01 13:55:23;;;;;;;0.32;0.32;;;;;;;;;;5135695;27;20058;-83
2022/09/01 13:57:49;;;;;;;1.05;0.93;;;;;;;;;;5118192;27;20031;-81
2022/09/01 14:00:17;;;;;;;0.68;0.68;;;;;;;;;;5134861;27;20025;-81
2022/09/01 14:02:51;;;;;;;0.40;0.40;;;;;;;;;;5131022;27;20406;-80
2022/09/01 14:05:20;;;;;;;1.15;1.10;;;;;;;;;;5116462;27;20027;-83
2022/09/01 14:07:46;;;;;;;0.10;0.10;;;;;;;;;;5128886;27;20024;-82
2022/09/01 14:10:13;;;;;;;1.15;1.05;;;;;;;;;;5133458;27;20162;-82
2022/09/01 14:12:40;;;;;;;3.67;1.70;;;;;;;;;;5114989;27;20030;-83
2022/09/01 14:15:07;;;;;;;1.35;1.23;;;;;;;;;;5117726;27;20833;-82
2022/09/01 14:17:33;;;;;;;0.32;0.32;;;;;;;;;;5134048;27;20027;-83
2022/09/01 14:19:58;;;;;;;0.43;0.43;;;;;;;;;;5112162;27;20405;-82
2022/09/01 14:22:24;;;;;;;0.10;0.10;;;;;;;;;;5128224;27;20027;-81
2022/09/01 14:24:49;;;;;;;0.10;0.10;;;;;;;;;;5129013;27;20027;-82
2022/09/01 14:27:15;;;;;;;0.65;0.65;;;;;;;;;;5130933;27;20027;-83
2022/09/01 14:29:41;;;;;;;0.73;0.63;;;;;;;;;;5113562;27;20019;-82
2022/09/01 14:32:06;;;;;;;1.75;0.90;;;;;;;;;;5131427;27;20027;-81
2022/09/01 14:34:33;;;;;;;0.15;0.15;;;;;;;;;;5129025;27;20030;-82
2022/09/01 14:36:58;;;;;;;1.15;0.82;;;;;;;;;;5132521;27;20015;-81
2022/09/01 14:39:24;;;;;;;1.05;0.85;;;;;;;;;;5113427;27;20060;-83
2022/09/01 14:41:49;;;;;;;0.40;0.40;;;;;;;;;;5111173;27;20033;-82
2022/09/01 14:44:14;;;;;;;0.10;0.10;;;;;;;;;;5133392;27;20023;-83
2022/09/01 14:46:40;;;;;;;0.80;0.80;;;;;;;;;;5135936;27;20019;-83
2022/09/01 14:49:06;;;;;;;0.43;0.43;;;;;;;;;;5135911;27;20114;-81
2022/09/01 14:51:32;;;;;;;0.35;0.35;;;;;;;;;;5116249;28;20027;-81
2022/09/01 14:53:58;;;;;;;0.68;0.68;;;;;;;;;;5135026;27;20083;-82
2022/09/01 14:56:24;;;;;;;0.47;0.43;;;;;;;;;;5135410;27;20047;-82
2022/09/01 14:58:57;;;;;;;0.28;0.28;;;;;;;;;;5115482;27;20035;-83
2022/09/01 15:01:24;;;;;;;0.10;0.10;;;;;;;;;;5113385;27;20019;-82
2022/09/01 15:03:49;;;;;;;0.98;0.88;;;;;;;;;;5110920;27;20491;-82